sensor_id;sensor_type;location;lat;lon;timestamp;temperature;humidity
22908;DHT22;11620;50.050;8.690;2022-12-07T00:01:56;1.80;99.90
22908;DHT22;11620;50.050;8.690;2022-12-07T00:04:43;1.70;99.90
22908;DHT22;11620;50.050;8.690;2022-12-07T00:07:29;1.60;99.90
22908;DHT22;11620;50.050;8.690;2022-12-07T00:10:15;1.70;99.90
22908;DHT22;11620;50.050;8.690;2022-12-07T00:13:02;1.70;99.90
22908;DHT22;11620;50.050;8.690;2022-12-07T00:15:48;1.70;99.90
22908;DHT22;11620;50.050;8.690;2022-12-07T00:18:35;1.70;99.90
22908;DHT22;11620;50.050;8.690;2022-12-07T00:21:24;1.60;99.90
22908;DHT22;11620;50.050;8.690;2022-12-07T00:24:11;1.40;99.90
22908;DHT22;11620;50.050;8.690;2022-12-07T00:26:58;1.50;99.90
22908;DHT22;11620;50.050;8.690;2022-12-07T00:29:44;1.40;99.90
22908;DHT22;11620;50.050;8.690;2022-12-07T00:32:31;1.50;99.90
22908;DHT22;11620;50.050;8.690;2022-12-07T00:35:17;1.60;99.90
22908;DHT22;11620;50.050;8.690;2022-12-07T00:38:03;1.60;99.90
22908;DHT22;11620;50.050;8.690;2022-12-07T00:41:00;1.60;99.90
22908;DHT22;11620;50.050;8.690;2022-12-07T00:43:48;1.60;99.90
22908;DHT22;11620;50.050;8.690;2022-12-07T00:46:34;1.70;99.90
22908;DHT22;11620;50.050;8.690;2022-12-07T00:49:21;1.60;99.90
22908;DHT22;11620;50.050;8.690;2022-12-07T00:52:07;1.60;99.90
22908;DHT22;11620;50.050;8.690;2022-12-07T00:54:54;1.70;99.90
22908;DHT22;11620;50.050;8.690;2022-12-07T00:57:40;1.60;99.90
22908;DHT22;11620;50.050;8.690;2022-12-07T01:00:26;1.50;99.90
22908;DHT22;11620;50.050;8.690;2022-12-07T01:03:14;1.50;99.90
22908;DHT22;11620;50.050;8.690;2022-12-07T01:06:01;1.40;99.90
22908;DHT22;11620;50.050;8.690;2022-12-07T01:08:47;1.40;99.90
22908;DHT22;11620;50.050;8.690;2022-12-07T01:11:34;1.40;99.90
22908;DHT22;11620;50.050;8.690;2022-12-07T01:14:20;1.60;99.90
22908;DHT22;11620;50.050;8.690;2022-12-07T01:17:06;1.50;99.90
22908;DHT22;11620;50.050;8.690;2022-12-07T01:19:53;1.70;99.90
22908;DHT22;11620;50.050;8.690;2022-12-07T01:22:40;1.80;99.90
22908;DHT22;11620;50.050;8.690;2022-12-07T01:25:27;1.70;99.90
22908;DHT22;11620;50.050;8.690;2022-12-07T01:28:13;1.50;99.90
22908;DHT22;11620;50.050;8.690;2022-12-07T01:31:01;1.40;99.90
22908;DHT22;11620;50.050;8.690;2022-12-07T01:33:50;1.30;99.90
22908;DHT22;11620;50.050;8.690;2022-12-07T01:36:36;1.20;99.90
22908;DHT22;11620;50.050;8.690;2022-12-07T01:39:23;1.30;99.90
22908;DHT22;11620;50.050;8.690;2022-12-07T01:42:10;1.40;99.90
22908;DHT22;11620;50.050;8.690;2022-12-07T01:45:38;1.50;99.90
22908;DHT22;11620;50.050;8.690;2022-12-07T01:51:18;1.60;99.90
22908;DHT22;11620;50.050;8.690;2022-12-07T01:54:05;1.60;99.90
22908;DHT22;11620;50.050;8.690;2022-12-07T01:56:54;1.70;99.90
22908;DHT22;11620;50.050;8.690;2022-12-07T01:59:42;1.70;99.90
22908;DHT22;11620;50.050;8.690;2022-12-07T02:02:35;1.50;99.90
22908;DHT22;11620;50.050;8.690;2022-12-07T02:05:24;1.40;99.90
22908;DHT22;11620;50.050;8.690;2022-12-07T02:08:12;1.40;99.90
22908;DHT22;11620;50.050;8.690;2022-12-07T02:11:02;1.30;99.90
22908;DHT22;11620;50.050;8.690;2022-12-07T02:13:49;1.30;99.90
22908;DHT22;11620;50.050;8.690;2022-12-07T02:38:11;1.50;99.90
22908;DHT22;11620;50.050;8.690;2022-12-07T02:44:24;1.50;99.90
22908;DHT22;11620;50.050;8.690;2022-12-07T02:47:14;1.50;99.90
22908;DHT22;11620;50.050;8.690;2022-12-07T02:50:06;1.50;99.90
22908;DHT22;11620;50.050;8.690;2022-12-07T02:52:52;1.40;99.90
22908;DHT22;11620;50.050;8.690;2022-12-07T02:55:41;1.40;99.90
22908;DHT22;11620;50.050;8.690;2022-12-07T03:01:55;1.40;99.90
22908;DHT22;11620;50.050;8.690;2022-12-07T03:13:39;1.60;99.90
22908;DHT22;11620;50.050;8.690;2022-12-07T03:16:33;1.60;99.90
22908;DHT22;11620;50.050;8.690;2022-12-07T03:19:23;1.50;99.90
22908;DHT22;11620;50.050;8.690;2022-12-07T03:22:12;1.60;99.90
22908;DHT22;11620;50.050;8.690;2022-12-07T03:25:03;1.50;99.90
22908;DHT22;11620;50.050;8.690;2022-12-07T03:28:03;1.50;99.90
22908;DHT22;11620;50.050;8.690;2022-12-07T03:31:28;1.40;99.90
22908;DHT22;11620;50.050;8.690;2022-12-07T03:34:26;1.40;99.90
22908;DHT22;11620;50.050;8.690;2022-12-07T03:37:23;1.60;99.90
22908;DHT22;11620;50.050;8.690;2022-12-07T03:43:18;1.70;99.90
22908;DHT22;11620;50.050;8.690;2022-12-07T03:49:23;1.60;99.90
22908;DHT22;11620;50.050;8.690;2022-12-07T03:52:24;1.60;99.90
22908;DHT22;11620;50.050;8.690;2022-12-07T03:58:01;1.40;99.90
22908;DHT22;11620;50.050;8.690;2022-12-07T04:00:49;1.50;99.90
22908;DHT22;11620;50.050;8.690;2022-12-07T04:03:36;1.50;99.90
22908;DHT22;11620;50.050;8.690;2022-12-07T04:06:22;1.40;99.90
22908;DHT22;11620;50.050;8.690;2022-12-07T04:09:08;1.40;99.90
22908;DHT22;11620;50.050;8.690;2022-12-07T04:11:55;1.40;99.90
22908;DHT22;11620;50.050;8.690;2022-12-07T04:14:41;1.30;99.90
22908;DHT22;11620;50.050;8.690;2022-12-07T04:17:27;1.50;99.90
22908;DHT22;11620;50.050;8.690;2022-12-07T04:20:14;1.40;99.90
22908;DHT22;11620;50.050;8.690;2022-12-07T04:23:00;1.40;99.90
22908;DHT22;11620;50.050;8.690;2022-12-07T04:25:48;1.50;99.90
22908;DHT22;11620;50.050;8.690;2022-12-07T04:28:34;1.40;99.90
22908;DHT22;11620;50.050;8.690;2022-12-07T04:31:21;1.30;99.90
22908;DHT22;11620;50.050;8.690;2022-12-07T04:34:07;1.40;99.90
22908;DHT22;11620;50.050;8.690;2022-12-07T04:36:53;1.50;99.90
22908;DHT22;11620;50.050;8.690;2022-12-07T04:39:40;1.50;99.90
22908;DHT22;11620;50.050;8.690;2022-12-07T04:42:26;1.50;99.90
22908;DHT22;11620;50.050;8.690;2022-12-07T04:45:12;1.50;99.90
22908;DHT22;11620;50.050;8.690;2022-12-07T04:47:59;1.50;99.90
22908;DHT22;11620;50.050;8.690;2022-12-07T04:50:48;1.30;99.90
22908;DHT22;11620;50.050;8.690;2022-12-07T04:53:35;1.30;99.90
22908;DHT22;11620;50.050;8.690;2022-12-07T04:56:22;1.40;99.90
22908;DHT22;11620;50.050;8.690;2022-12-07T04:59:13;1.40;99.90
22908;DHT22;11620;50.050;8.690;2022-12-07T05:01:59;1.50;99.90
22908;DHT22;11620;50.050;8.690;2022-12-07T05:04:46;1.50;99.90
22908;DHT22;11620;50.050;8.690;2022-12-07T05:07:32;1.50;99.90
22908;DHT22;11620;50.050;8.690;2022-12-07T05:10:18;1.60;99.90
22908;DHT22;11620;50.050;8.690;2022-12-07T05:13:05;1.70;99.90
22908;DHT22;11620;50.050;8.690;2022-12-07T05:15:51;1.60;99.90
22908;DHT22;11620;50.050;8.690;2022-12-07T05:18:37;1.50;99.90
22908;DHT22;11620;50.050;8.690;2022-12-07T05:21:24;1.60;99.90
22908;DHT22;11620;50.050;8.690;2022-12-07T05:24:13;1.50;99.90
22908;DHT22;11620;50.050;8.690;2022-12-07T05:26:59;1.50;99.90
22908;DHT22;11620;50.050;8.690;2022-12-07T05:29:46;1.50;99.90
22908;DHT22;11620;50.050;8.690;2022-12-07T05:32:32;1.60;99.90
22908;DHT22;11620;50.050;8.690;2022-12-07T05:35:19;1.60;99.90
22908;DHT22;11620;50.050;8.690;2022-12-07T05:38:05;1.60;99.90
22908;DHT22;11620;50.050;8.690;2022-12-07T05:40:52;1.60;99.90
22908;DHT22;11620;50.050;8.690;2022-12-07T05:43:38;1.70;99.90
22908;DHT22;11620;50.050;8.690;2022-12-07T05:46:24;1.60;99.90
22908;DHT22;11620;50.050;8.690;2022-12-07T05:49:11;1.70;99.90
22908;DHT22;11620;50.050;8.690;2022-12-07T05:51:57;1.80;99.90
22908;DHT22;11620;50.050;8.690;2022-12-07T05:54:43;1.80;99.90
22908;DHT22;11620;50.050;8.690;2022-12-07T05:57:30;1.80;99.90
22908;DHT22;11620;50.050;8.690;2022-12-07T06:00:16;1.90;99.90
22908;DHT22;11620;50.050;8.690;2022-12-07T06:03:03;1.90;99.90
22908;DHT22;11620;50.050;8.690;2022-12-07T06:05:49;1.90;99.90
22908;DHT22;11620;50.050;8.690;2022-12-07T06:08:35;1.90;99.90
22908;DHT22;11620;50.050;8.690;2022-12-07T06:11:22;1.90;99.90
22908;DHT22;11620;50.050;8.690;2022-12-07T06:14:27;1.90;99.90
22908;DHT22;11620;50.050;8.690;2022-12-07T06:17:13;1.90;99.90
22908;DHT22;11620;50.050;8.690;2022-12-07T06:20:00;1.90;99.90
22908;DHT22;11620;50.050;8.690;2022-12-07T06:22:46;1.90;99.90
22908;DHT22;11620;50.050;8.690;2022-12-07T06:25:32;1.90;99.90
22908;DHT22;11620;50.050;8.690;2022-12-07T06:28:19;2.00;99.90
22908;DHT22;11620;50.050;8.690;2022-12-07T06:31:05;2.10;99.90
22908;DHT22;11620;50.050;8.690;2022-12-07T06:33:51;2.00;99.90
22908;DHT22;11620;50.050;8.690;2022-12-07T06:36:38;1.90;99.90
22908;DHT22;11620;50.050;8.690;2022-12-07T06:39:26;2.00;99.90
22908;DHT22;11620;50.050;8.690;2022-12-07T06:42:13;1.90;99.90
22908;DHT22;11620;50.050;8.690;2022-12-07T06:44:59;1.90;99.90
22908;DHT22;11620;50.050;8.690;2022-12-07T06:47:46;1.90;99.90
22908;DHT22;11620;50.050;8.690;2022-12-07T06:50:32;1.80;99.90
22908;DHT22;11620;50.050;8.690;2022-12-07T06:53:19;1.70;99.90
22908;DHT22;11620;50.050;8.690;2022-12-07T06:56:05;1.70;99.90
22908;DHT22;11620;50.050;8.690;2022-12-07T06:58:52;1.70;99.90
22908;DHT22;11620;50.050;8.690;2022-12-07T07:01:38;1.60;99.90
22908;DHT22;11620;50.050;8.690;2022-12-07T07:04:24;1.70;99.90
22908;DHT22;11620;50.050;8.690;2022-12-07T07:07:11;1.70;99.90
22908;DHT22;11620;50.050;8.690;2022-12-07T07:09:57;1.70;99.90
22908;DHT22;11620;50.050;8.690;2022-12-07T07:12:43;1.70;99.90
22908;DHT22;11620;50.050;8.690;2022-12-07T07:15:30;1.70;99.90
22908;DHT22;11620;50.050;8.690;2022-12-07T07:18:16;1.80;99.90
22908;DHT22;11620;50.050;8.690;2022-12-07T07:21:03;1.90;99.90
22908;DHT22;11620;50.050;8.690;2022-12-07T07:23:49;1.90;99.90
22908;DHT22;11620;50.050;8.690;2022-12-07T07:26:36;1.90;99.90
22908;DHT22;11620;50.050;8.690;2022-12-07T07:29:22;2.00;99.90
22908;DHT22;11620;50.050;8.690;2022-12-07T07:32:08;2.00;99.90
22908;DHT22;11620;50.050;8.690;2022-12-07T07:34:55;2.00;99.90
22908;DHT22;11620;50.050;8.690;2022-12-07T07:37:41;2.10;99.90
22908;DHT22;11620;50.050;8.690;2022-12-07T07:40:28;2.00;99.90
22908;DHT22;11620;50.050;8.690;2022-12-07T07:43:17;2.10;99.90
22908;DHT22;11620;50.050;8.690;2022-12-07T07:46:03;2.10;99.90
22908;DHT22;11620;50.050;8.690;2022-12-07T07:48:50;2.10;99.90
22908;DHT22;11620;50.050;8.690;2022-12-07T07:51:36;2.00;99.90
22908;DHT22;11620;50.050;8.690;2022-12-07T07:54:22;1.90;99.90
22908;DHT22;11620;50.050;8.690;2022-12-07T07:57:09;2.00;99.90
22908;DHT22;11620;50.050;8.690;2022-12-07T07:59:55;2.10;99.90
22908;DHT22;11620;50.050;8.690;2022-12-07T08:02:42;2.10;99.90
22908;DHT22;11620;50.050;8.690;2022-12-07T08:05:32;2.10;99.90
22908;DHT22;11620;50.050;8.690;2022-12-07T08:08:18;2.00;99.90
22908;DHT22;11620;50.050;8.690;2022-12-07T08:11:05;2.10;99.90
22908;DHT22;11620;50.050;8.690;2022-12-07T08:13:52;2.10;99.90
22908;DHT22;11620;50.050;8.690;2022-12-07T08:16:38;2.10;99.90
22908;DHT22;11620;50.050;8.690;2022-12-07T08:19:24;2.00;99.90
22908;DHT22;11620;50.050;8.690;2022-12-07T08:22:11;2.00;99.90
22908;DHT22;11620;50.050;8.690;2022-12-07T08:24:57;2.00;99.90
22908;DHT22;11620;50.050;8.690;2022-12-07T08:27:43;2.00;99.90
22908;DHT22;11620;50.050;8.690;2022-12-07T08:30:30;1.90;99.90
22908;DHT22;11620;50.050;8.690;2022-12-07T08:33:16;2.00;99.90
22908;DHT22;11620;50.050;8.690;2022-12-07T08:36:05;2.00;99.90
22908;DHT22;11620;50.050;8.690;2022-12-07T08:38:51;2.00;99.90
22908;DHT22;11620;50.050;8.690;2022-12-07T08:41:38;2.00;99.90
22908;DHT22;11620;50.050;8.690;2022-12-07T08:44:24;2.10;99.90
22908;DHT22;11620;50.050;8.690;2022-12-07T08:47:11;2.30;99.90
22908;DHT22;11620;50.050;8.690;2022-12-07T08:49:58;2.30;99.90
22908;DHT22;11620;50.050;8.690;2022-12-07T08:52:52;2.30;99.90
22908;DHT22;11620;50.050;8.690;2022-12-07T08:55:39;2.30;99.90
22908;DHT22;11620;50.050;8.690;2022-12-07T08:58:26;2.30;99.90
22908;DHT22;11620;50.050;8.690;2022-12-07T09:01:12;2.50;99.90
22908;DHT22;11620;50.050;8.690;2022-12-07T09:03:59;2.90;99.90
22908;DHT22;11620;50.050;8.690;2022-12-07T09:06:45;2.90;99.90
22908;DHT22;11620;50.050;8.690;2022-12-07T09:09:32;3.00;99.90
22908;DHT22;11620;50.050;8.690;2022-12-07T09:12:18;3.00;99.90
22908;DHT22;11620;50.050;8.690;2022-12-07T09:15:05;3.10;99.90
22908;DHT22;11620;50.050;8.690;2022-12-07T09:17:51;2.90;99.90
22908;DHT22;11620;50.050;8.690;2022-12-07T09:20:38;2.60;99.90
22908;DHT22;11620;50.050;8.690;2022-12-07T09:23:24;2.70;99.90
22908;DHT22;11620;50.050;8.690;2022-12-07T09:26:11;2.80;99.90
22908;DHT22;11620;50.050;8.690;2022-12-07T09:28:57;2.80;99.90
22908;DHT22;11620;50.050;8.690;2022-12-07T09:31:43;3.20;99.90
22908;DHT22;11620;50.050;8.690;2022-12-07T09:34:31;3.50;99.90
22908;DHT22;11620;50.050;8.690;2022-12-07T09:37:18;4.20;99.90
22908;DHT22;11620;50.050;8.690;2022-12-07T09:40:05;4.60;99.90
22908;DHT22;11620;50.050;8.690;2022-12-07T09:42:53;4.90;99.90
22908;DHT22;11620;50.050;8.690;2022-12-07T09:45:41;5.00;99.90
22908;DHT22;11620;50.050;8.690;2022-12-07T09:48:34;5.10;99.90
22908;DHT22;11620;50.050;8.690;2022-12-07T09:51:23;5.00;99.90
22908;DHT22;11620;50.050;8.690;2022-12-07T09:54:13;4.70;99.90
22908;DHT22;11620;50.050;8.690;2022-12-07T09:57:00;4.60;99.90
22908;DHT22;11620;50.050;8.690;2022-12-07T09:59:46;4.40;99.90
22908;DHT22;11620;50.050;8.690;2022-12-07T10:02:41;4.40;99.90
22908;DHT22;11620;50.050;8.690;2022-12-07T10:05:42;4.10;99.90
22908;DHT22;11620;50.050;8.690;2022-12-07T10:08:29;4.00;99.90
22908;DHT22;11620;50.050;8.690;2022-12-07T10:11:15;4.00;99.90
22908;DHT22;11620;50.050;8.690;2022-12-07T10:14:12;3.90;99.90
22908;DHT22;11620;50.050;8.690;2022-12-07T10:17:00;3.90;99.90
22908;DHT22;11620;50.050;8.690;2022-12-07T10:19:46;4.00;99.90
22908;DHT22;11620;50.050;8.690;2022-12-07T10:22:33;4.00;99.90
22908;DHT22;11620;50.050;8.690;2022-12-07T10:25:21;4.20;99.90
22908;DHT22;11620;50.050;8.690;2022-12-07T10:30:59;4.60;99.90
22908;DHT22;11620;50.050;8.690;2022-12-07T10:36:40;4.40;99.90
22908;DHT22;11620;50.050;8.690;2022-12-07T10:39:26;4.50;99.90
22908;DHT22;11620;50.050;8.690;2022-12-07T10:45:24;4.40;99.90
22908;DHT22;11620;50.050;8.690;2022-12-07T11:04:29;4.50;99.90
22908;DHT22;11620;50.050;8.690;2022-12-07T11:07:38;5.10;99.90
22908;DHT22;11620;50.050;8.690;2022-12-07T11:10:33;5.20;99.90
22908;DHT22;11620;50.050;8.690;2022-12-07T11:25:39;5.50;99.90
22908;DHT22;11620;50.050;8.690;2022-12-07T11:28:37;5.70;99.90
22908;DHT22;11620;50.050;8.690;2022-12-07T11:31:41;5.60;99.90
22908;DHT22;11620;50.050;8.690;2022-12-07T11:37:39;4.90;99.90
22908;DHT22;11620;50.050;8.690;2022-12-07T11:40:33;4.80;99.90
22908;DHT22;11620;50.050;8.690;2022-12-07T11:43:27;4.80;99.90
22908;DHT22;11620;50.050;8.690;2022-12-07T11:46:17;4.80;99.90
22908;DHT22;11620;50.050;8.690;2022-12-07T11:52:01;4.70;99.90
22908;DHT22;11620;50.050;8.690;2022-12-07T11:54:50;4.60;99.90
22908;DHT22;11620;50.050;8.690;2022-12-07T11:57:43;4.80;99.90
22908;DHT22;11620;50.050;8.690;2022-12-07T12:00:30;4.90;99.90
22908;DHT22;11620;50.050;8.690;2022-12-07T12:03:23;5.00;99.90
22908;DHT22;11620;50.050;8.690;2022-12-07T12:06:16;4.90;99.90
22908;DHT22;11620;50.050;8.690;2022-12-07T12:09:15;5.00;99.90
22908;DHT22;11620;50.050;8.690;2022-12-07T12:15:16;5.10;99.90
22908;DHT22;11620;50.050;8.690;2022-12-07T12:18:24;4.90;99.90
22908;DHT22;11620;50.050;8.690;2022-12-07T12:21:17;5.10;99.90
22908;DHT22;11620;50.050;8.690;2022-12-07T12:24:11;5.10;99.90
22908;DHT22;11620;50.050;8.690;2022-12-07T12:27:26;5.20;99.90
22908;DHT22;11620;50.050;8.690;2022-12-07T12:30:35;4.90;99.90
22908;DHT22;11620;50.050;8.690;2022-12-07T12:33:29;4.90;99.90
22908;DHT22;11620;50.050;8.690;2022-12-07T12:36:18;5.00;99.90
22908;DHT22;11620;50.050;8.690;2022-12-07T12:42:00;4.90;99.90
22908;DHT22;11620;50.050;8.690;2022-12-07T12:45:22;5.00;99.90
22908;DHT22;11620;50.050;8.690;2022-12-07T12:48:29;5.00;99.90
22908;DHT22;11620;50.050;8.690;2022-12-07T12:51:55;4.90;99.90
22908;DHT22;11620;50.050;8.690;2022-12-07T12:58:25;4.80;99.90
22908;DHT22;11620;50.050;8.690;2022-12-07T13:04:24;4.60;99.90
22908;DHT22;11620;50.050;8.690;2022-12-07T13:07:12;4.50;99.90
22908;DHT22;11620;50.050;8.690;2022-12-07T13:09:59;4.40;99.90
22908;DHT22;11620;50.050;8.690;2022-12-07T13:18:54;4.50;99.90
22908;DHT22;11620;50.050;8.690;2022-12-07T13:21:42;4.60;99.90
22908;DHT22;11620;50.050;8.690;2022-12-07T13:24:31;4.60;99.90
22908;DHT22;11620;50.050;8.690;2022-12-07T13:27:18;4.50;99.90
22908;DHT22;11620;50.050;8.690;2022-12-07T13:30:17;4.50;99.90
22908;DHT22;11620;50.050;8.690;2022-12-07T13:33:04;4.60;99.90
22908;DHT22;11620;50.050;8.690;2022-12-07T13:35:54;4.80;99.90
22908;DHT22;11620;50.050;8.690;2022-12-07T13:38:52;4.80;99.90
22908;DHT22;11620;50.050;8.690;2022-12-07T13:41:42;4.90;99.90
22908;DHT22;11620;50.050;8.690;2022-12-07T13:44:34;5.10;99.90
22908;DHT22;11620;50.050;8.690;2022-12-07T13:47:30;5.30;99.90
22908;DHT22;11620;50.050;8.690;2022-12-07T13:50:29;5.40;99.90
22908;DHT22;11620;50.050;8.690;2022-12-07T13:53:16;5.40;99.90
22908;DHT22;11620;50.050;8.690;2022-12-07T13:56:02;5.40;99.90
22908;DHT22;11620;50.050;8.690;2022-12-07T13:58:49;5.40;99.90
22908;DHT22;11620;50.050;8.690;2022-12-07T14:01:35;5.30;99.90
22908;DHT22;11620;50.050;8.690;2022-12-07T14:04:34;5.10;99.90
22908;DHT22;11620;50.050;8.690;2022-12-07T14:07:25;5.10;99.90
22908;DHT22;11620;50.050;8.690;2022-12-07T14:10:32;5.00;99.90
22908;DHT22;11620;50.050;8.690;2022-12-07T14:16:35;5.10;99.90
22908;DHT22;11620;50.050;8.690;2022-12-07T14:19:43;5.00;99.90
22908;DHT22;11620;50.050;8.690;2022-12-07T14:22:33;4.90;99.90
22908;DHT22;11620;50.050;8.690;2022-12-07T14:25:25;4.90;99.90
22908;DHT22;11620;50.050;8.690;2022-12-07T14:28:35;4.90;99.90
22908;DHT22;11620;50.050;8.690;2022-12-07T14:31:24;5.00;99.90
22908;DHT22;11620;50.050;8.690;2022-12-07T14:34:14;5.00;99.90
22908;DHT22;11620;50.050;8.690;2022-12-07T14:37:00;5.00;99.90
22908;DHT22;11620;50.050;8.690;2022-12-07T14:39:46;5.00;99.90
22908;DHT22;11620;50.050;8.690;2022-12-07T14:42:33;5.10;99.90
22908;DHT22;11620;50.050;8.690;2022-12-07T14:45:22;5.00;99.90
22908;DHT22;11620;50.050;8.690;2022-12-07T14:48:13;5.00;99.90
22908;DHT22;11620;50.050;8.690;2022-12-07T14:50:59;4.80;99.90
22908;DHT22;11620;50.050;8.690;2022-12-07T14:53:49;4.70;99.90
22908;DHT22;11620;50.050;8.690;2022-12-07T14:56:36;4.60;99.90
22908;DHT22;11620;50.050;8.690;2022-12-07T14:59:22;4.50;99.90
22908;DHT22;11620;50.050;8.690;2022-12-07T15:02:12;4.50;99.90
22908;DHT22;11620;50.050;8.690;2022-12-07T15:04:59;4.50;99.90
22908;DHT22;11620;50.050;8.690;2022-12-07T15:07:46;4.50;99.90
22908;DHT22;11620;50.050;8.690;2022-12-07T15:10:33;4.40;99.90
22908;DHT22;11620;50.050;8.690;2022-12-07T15:13:20;4.30;99.90
22908;DHT22;11620;50.050;8.690;2022-12-07T15:16:25;4.30;99.90
22908;DHT22;11620;50.050;8.690;2022-12-07T15:19:22;4.30;99.90
22908;DHT22;11620;50.050;8.690;2022-12-07T15:22:09;4.30;99.90
22908;DHT22;11620;50.050;8.690;2022-12-07T15:24:57;4.30;99.90
22908;DHT22;11620;50.050;8.690;2022-12-07T15:27:43;4.20;99.90
22908;DHT22;11620;50.050;8.690;2022-12-07T15:30:30;4.30;99.90
22908;DHT22;11620;50.050;8.690;2022-12-07T15:33:16;4.30;99.90
22908;DHT22;11620;50.050;8.690;2022-12-07T15:36:02;4.30;99.90
22908;DHT22;11620;50.050;8.690;2022-12-07T15:38:49;4.40;99.90
22908;DHT22;11620;50.050;8.690;2022-12-07T15:41:36;4.40;99.90
22908;DHT22;11620;50.050;8.690;2022-12-07T15:44:22;4.30;99.90
22908;DHT22;11620;50.050;8.690;2022-12-07T15:47:27;4.40;99.90
22908;DHT22;11620;50.050;8.690;2022-12-07T15:50:15;4.40;99.90
22908;DHT22;11620;50.050;8.690;2022-12-07T15:53:02;4.40;99.90
22908;DHT22;11620;50.050;8.690;2022-12-07T15:55:48;4.30;99.90
22908;DHT22;11620;50.050;8.690;2022-12-07T15:58:35;4.30;99.90
22908;DHT22;11620;50.050;8.690;2022-12-07T16:01:21;4.30;99.90
22908;DHT22;11620;50.050;8.690;2022-12-07T16:04:07;4.20;99.90
22908;DHT22;11620;50.050;8.690;2022-12-07T16:06:54;3.90;99.90
22908;DHT22;11620;50.050;8.690;2022-12-07T16:09:40;3.90;99.90
22908;DHT22;11620;50.050;8.690;2022-12-07T16:12:26;3.90;99.90
22908;DHT22;11620;50.050;8.690;2022-12-07T16:15:13;3.90;99.90
22908;DHT22;11620;50.050;8.690;2022-12-07T16:17:59;3.80;99.90
22908;DHT22;11620;50.050;8.690;2022-12-07T16:20:48;3.70;99.90
22908;DHT22;11620;50.050;8.690;2022-12-07T16:23:35;3.60;99.90
22908;DHT22;11620;50.050;8.690;2022-12-07T16:26:21;3.70;99.90
22908;DHT22;11620;50.050;8.690;2022-12-07T16:29:11;3.70;99.90
22908;DHT22;11620;50.050;8.690;2022-12-07T16:31:57;3.80;99.90
22908;DHT22;11620;50.050;8.690;2022-12-07T16:34:43;3.50;99.90
22908;DHT22;11620;50.050;8.690;2022-12-07T16:37:30;3.50;99.90
22908;DHT22;11620;50.050;8.690;2022-12-07T16:40:16;3.40;99.90
22908;DHT22;11620;50.050;8.690;2022-12-07T16:43:02;3.40;99.90
22908;DHT22;11620;50.050;8.690;2022-12-07T16:45:49;3.30;99.90
22908;DHT22;11620;50.050;8.690;2022-12-07T16:48:39;3.20;99.90
22908;DHT22;11620;50.050;8.690;2022-12-07T16:51:25;3.10;99.90
22908;DHT22;11620;50.050;8.690;2022-12-07T16:54:12;3.10;99.90
22908;DHT22;11620;50.050;8.690;2022-12-07T16:56:58;3.10;99.90
22908;DHT22;11620;50.050;8.690;2022-12-07T16:59:45;3.00;99.90
22908;DHT22;11620;50.050;8.690;2022-12-07T17:02:31;2.90;99.90
22908;DHT22;11620;50.050;8.690;2022-12-07T17:05:18;3.00;99.90
22908;DHT22;11620;50.050;8.690;2022-12-07T17:08:04;3.10;99.90
22908;DHT22;11620;50.050;8.690;2022-12-07T17:10:50;3.10;99.90
22908;DHT22;11620;50.050;8.690;2022-12-07T17:13:37;3.20;99.90
22908;DHT22;11620;50.050;8.690;2022-12-07T17:16:42;3.20;99.90
22908;DHT22;11620;50.050;8.690;2022-12-07T17:19:28;3.10;99.90
22908;DHT22;11620;50.050;8.690;2022-12-07T17:22:14;3.10;99.90
22908;DHT22;11620;50.050;8.690;2022-12-07T17:25:02;3.10;99.90
22908;DHT22;11620;50.050;8.690;2022-12-07T17:27:49;3.00;99.90
22908;DHT22;11620;50.050;8.690;2022-12-07T17:30:37;3.00;99.90
22908;DHT22;11620;50.050;8.690;2022-12-07T17:33:24;3.00;99.90
22908;DHT22;11620;50.050;8.690;2022-12-07T17:39:01;3.00;99.90
22908;DHT22;11620;50.050;8.690;2022-12-07T17:41:48;3.10;99.90
22908;DHT22;11620;50.050;8.690;2022-12-07T17:44:53;3.10;99.90
22908;DHT22;11620;50.050;8.690;2022-12-07T17:47:39;3.10;99.90
22908;DHT22;11620;50.050;8.690;2022-12-07T17:50:26;3.20;99.90
22908;DHT22;11620;50.050;8.690;2022-12-07T17:53:31;3.10;99.90
22908;DHT22;11620;50.050;8.690;2022-12-07T17:56:17;3.10;99.90
22908;DHT22;11620;50.050;8.690;2022-12-07T17:59:04;3.10;99.90
22908;DHT22;11620;50.050;8.690;2022-12-07T18:01:51;2.90;99.90
22908;DHT22;11620;50.050;8.690;2022-12-07T18:04:37;2.90;99.90
22908;DHT22;11620;50.050;8.690;2022-12-07T18:07:25;2.90;99.90
22908;DHT22;11620;50.050;8.690;2022-12-07T18:10:11;2.90;99.90
22908;DHT22;11620;50.050;8.690;2022-12-07T18:12:57;2.90;99.90
22908;DHT22;11620;50.050;8.690;2022-12-07T18:16:23;2.80;99.90
22908;DHT22;11620;50.050;8.690;2022-12-07T18:19:11;2.70;99.90
22908;DHT22;11620;50.050;8.690;2022-12-07T18:21:59;2.60;99.90
22908;DHT22;11620;50.050;8.690;2022-12-07T18:24:46;2.60;99.90
22908;DHT22;11620;50.050;8.690;2022-12-07T18:27:32;2.60;99.90
22908;DHT22;11620;50.050;8.690;2022-12-07T18:30:19;2.60;99.90
22908;DHT22;11620;50.050;8.690;2022-12-07T18:33:05;2.70;99.90
22908;DHT22;11620;50.050;8.690;2022-12-07T18:35:51;2.60;99.90
22908;DHT22;11620;50.050;8.690;2022-12-07T18:38:38;2.60;99.90
22908;DHT22;11620;50.050;8.690;2022-12-07T18:41:24;2.70;99.90
22908;DHT22;11620;50.050;8.690;2022-12-07T18:44:11;2.70;99.90
22908;DHT22;11620;50.050;8.690;2022-12-07T18:46:58;2.70;99.90
22908;DHT22;11620;50.050;8.690;2022-12-07T18:49:45;2.80;99.90
22908;DHT22;11620;50.050;8.690;2022-12-07T18:52:31;2.90;99.90
22908;DHT22;11620;50.050;8.690;2022-12-07T18:55:17;2.90;99.90
22908;DHT22;11620;50.050;8.690;2022-12-07T18:58:04;2.80;99.90
22908;DHT22;11620;50.050;8.690;2022-12-07T19:00:50;2.70;99.90
22908;DHT22;11620;50.050;8.690;2022-12-07T19:03:37;2.60;99.90
22908;DHT22;11620;50.050;8.690;2022-12-07T19:06:23;2.50;99.90
22908;DHT22;11620;50.050;8.690;2022-12-07T19:09:10;2.50;99.90
22908;DHT22;11620;50.050;8.690;2022-12-07T19:11:57;2.50;99.90
22908;DHT22;11620;50.050;8.690;2022-12-07T19:14:48;2.60;99.90
22908;DHT22;11620;50.050;8.690;2022-12-07T19:17:35;2.50;99.90
22908;DHT22;11620;50.050;8.690;2022-12-07T19:20:22;2.40;99.90
22908;DHT22;11620;50.050;8.690;2022-12-07T19:23:08;2.40;99.90
22908;DHT22;11620;50.050;8.690;2022-12-07T19:25:54;2.40;99.90
22908;DHT22;11620;50.050;8.690;2022-12-07T19:28:41;2.50;99.90
22908;DHT22;11620;50.050;8.690;2022-12-07T19:31:27;2.50;99.90
22908;DHT22;11620;50.050;8.690;2022-12-07T19:34:15;2.50;99.90
22908;DHT22;11620;50.050;8.690;2022-12-07T19:37:03;2.40;99.90
22908;DHT22;11620;50.050;8.690;2022-12-07T19:39:49;2.50;99.90
22908;DHT22;11620;50.050;8.690;2022-12-07T19:42:36;2.60;99.90
22908;DHT22;11620;50.050;8.690;2022-12-07T19:45:23;2.50;99.90
22908;DHT22;11620;50.050;8.690;2022-12-07T19:48:09;2.60;99.90
22908;DHT22;11620;50.050;8.690;2022-12-07T19:51:01;2.40;99.90
22908;DHT22;11620;50.050;8.690;2022-12-07T19:53:48;2.50;99.90
22908;DHT22;11620;50.050;8.690;2022-12-07T19:56:34;2.40;99.90
22908;DHT22;11620;50.050;8.690;2022-12-07T19:59:23;2.40;99.90
22908;DHT22;11620;50.050;8.690;2022-12-07T20:02:12;2.40;99.90